Time,TemperatureF,DewpointF,PressureIn,WindDirection,WindDirectionDegrees,WindSpeedMPH,WindSpeedGustMPH,Humidity,HourlyPrecipIn,Conditions,Clouds,dailyrainin,SoftwareType,DateUTC
2013-02-23 00:01:00,26.0,19.0,27.28,SE,128,0.0,4.0,75,0.00,,,0.00,,2013-02-23 07:01:00,
2013-02-23 00:11:00,26.0,19.0,27.28,SE,128,0.0,4.0,75,0.00,,,0.00,,2013-02-23 07:11:00,
2013-02-23 00:21:00,26.0,19.0,27.27,ENE,74,0.0,5.0,74,0.00,,,0.00,,2013-02-23 07:21:00,
2013-02-23 00:32:00,25.0,19.0,27.27,East,94,2.0,6.0,77,0.00,,,0.00,,2013-02-23 07:32:00,
2013-02-23 00:41:00,25.0,19.0,27.27,East,94,2.0,6.0,77,0.00,,,0.00,,2013-02-23 07:41:00,
2013-02-23 00:51:00,25.0,19.0,27.27,East,94,0.0,0.0,77,0.00,,,0.00,,2013-02-23 07:51:00,
2013-02-23 01:01:00,25.0,19.0,27.26,East,94,0.0,0.0,77,0.00,,,0.00,,2013-02-23 08:01:00,
2013-02-23 01:11:00,25.0,19.0,27.26,East,94,0.0,0.0,77,0.00,,,0.00,,2013-02-23 08:11:00,
2013-02-23 01:21:00,25.0,19.0,27.25,East,94,0.0,0.0,76,0.00,,,0.00,,2013-02-23 08:21:00,
2013-02-23 01:31:00,26.0,19.0,27.26,SE,144,0.0,5.0,75,0.00,,,0.00,,2013-02-23 08:31:00,
2013-02-23 01:42:00,26.0,19.0,27.26,SE,144,0.0,5.0,75,0.00,,,0.00,,2013-02-23 08:42:00,
2013-02-23 01:52:00,26.0,19.0,27.25,SE,144,0.0,0.0,74,0.00,,,0.00,,2013-02-23 08:52:00,
2013-02-23 02:01:00,25.0,19.0,27.24,ESE,113,0.0,2.0,76,0.00,,,0.00,,2013-02-23 09:01:00,
2013-02-23 02:11:00,25.0,19.0,27.24,ESE,113,0.0,2.0,76,0.00,,,0.00,,2013-02-23 09:11:00,
2013-02-23 02:21:00,25.0,19.0,27.24,ESE,113,0.0,0.0,77,0.00,,,0.00,,2013-02-23 09:21:00,
2013-02-23 02:31:00,25.0,19.0,27.23,ESE,113,0.0,2.0,78,0.00,,,0.00,,2013-02-23 09:31:00,
2013-02-23 02:41:00,25.0,19.0,27.23,ESE,113,0.0,2.0,78,0.00,,,0.00,,2013-02-23 09:41:00,
2013-02-23 02:51:00,26.0,20.0,27.23,East,99,4.0,7.0,79,0.00,,,0.00,,2013-02-23 09:51:00,
2013-02-23 03:01:00,26.0,20.0,27.22,East,100,0.0,4.0,77,0.00,,,0.00,,2013-02-23 10:01:00,
2013-02-23 03:11:00,26.0,20.0,27.22,East,100,0.0,4.0,77,0.00,,,0.00,,2013-02-23 10:11:00,
2013-02-23 03:21:00,26.0,20.0,27.22,East,100,0.0,0.0,77,0.00,,,0.00,,2013-02-23 10:21:00,
2013-02-23 03:32:00,26.0,20.0,27.22,East,100,0.0,0.0,78,0.00,,,0.00,,2013-02-23 10:32:00,
2013-02-23 03:42:00,26.0,20.0,27.22,East,100,0.0,0.0,78,0.00,,,0.00,,2013-02-23 10:42:00,
2013-02-23 03:51:00,26.0,20.0,27.21,East,100,0.0,0.0,78,0.00,,,0.00,,2013-02-23 10:51:00,
2013-02-23 04:02:00,26.0,20.0,27.21,East,100,0.0,0.0,79,0.00,,,0.00,,2013-02-23 11:02:00,
2013-02-23 04:11:00,26.0,20.0,27.21,East,100,0.0,0.0,79,0.00,,,0.00,,2013-02-23 11:11:00,
2013-02-23 04:21:00,26.0,21.0,27.22,East,100,0.0,0.0,81,0.00,,,0.00,,2013-02-23 11:21:00,
2013-02-23 04:32:00,26.0,21.0,27.21,East,100,0.0,0.0,82,0.00,,,0.00,,2013-02-23 11:32:00,
2013-02-23 04:41:00,26.0,21.0,27.21,East,100,0.0,0.0,82,0.00,,,0.00,,2013-02-23 11:41:00,
2013-02-23 04:52:00,25.0,21.0,27.21,East,100,0.0,0.0,83,0.00,,,0.00,,2013-02-23 11:52:00,
2013-02-23 05:02:00,26.0,21.0,27.21,East,100,0.0,0.0,81,0.00,,,0.00,,2013-02-23 12:02:00,
2013-02-23 05:11:00,26.0,21.0,27.21,East,100,0.0,0.0,81,0.00,,,0.00,,2013-02-23 12:11:00,
2013-02-23 05:21:00,26.0,21.0,27.21,East,100,0.0,0.0,82,0.00,,,0.00,,2013-02-23 12:21:00,
2013-02-23 05:32:00,26.0,21.0,27.21,East,100,0.0,0.0,82,0.00,,,0.00,,2013-02-23 12:32:00,
2013-02-23 05:42:00,26.0,21.0,27.21,East,100,0.0,0.0,82,0.00,,,0.00,,2013-02-23 12:42:00,
2013-02-23 05:52:00,26.0,21.0,27.21,East,100,0.0,2.0,81,0.00,,,0.00,,2013-02-23 12:52:00,
2013-02-23 06:01:00,27.0,22.0,27.21,East,100,0.0,0.0,82,0.00,,,0.00,,2013-02-23 13:01:00,
2013-02-23 06:11:00,27.0,22.0,27.21,East,100,0.0,0.0,82,0.00,,,0.00,,2013-02-23 13:11:00,
2013-02-23 06:22:00,27.0,22.0,27.21,East,100,0.0,0.0,81,0.00,,,0.00,,2013-02-23 13:22:00,
2013-02-23 06:32:00,27.0,22.0,27.21,East,100,0.0,0.0,81,0.00,,,0.00,,2013-02-23 13:32:00,
2013-02-23 06:42:00,27.0,22.0,27.21,East,100,0.0,0.0,81,0.00,,,0.00,,2013-02-23 13:42:00,
2013-02-23 06:52:00,27.0,21.0,27.21,East,100,0.0,0.0,79,0.00,,,0.00,,2013-02-23 13:52:00,
2013-02-23 07:02:00,27.0,22.0,27.21,East,100,1.0,4.0,80,0.00,,,0.00,,2013-02-23 14:02:00,
2013-02-23 07:11:00,27.0,22.0,27.21,East,100,1.0,4.0,80,0.00,,,0.00,,2013-02-23 14:11:00,
2013-02-23 07:21:00,28.0,22.0,27.21,SE,128,1.0,3.0,77,0.00,,,0.00,,2013-02-23 14:21:00,
2013-02-23 07:32:00,29.0,22.0,27.21,SE,128,0.0,5.0,74,0.00,,,0.00,,2013-02-23 14:32:00,
2013-02-23 07:42:00,29.0,22.0,27.21,SE,128,0.0,5.0,74,0.00,,,0.00,,2013-02-23 14:42:00,
2013-02-23 07:52:00,29.0,21.0,27.21,ESE,115,0.0,3.0,71,0.00,,,0.00,,2013-02-23 14:52:00,
2013-02-23 08:02:00,29.0,22.0,27.22,ESE,115,0.0,0.0,74,0.00,,,0.00,,2013-02-23 15:02:00,
2013-02-23 08:11:00,29.0,22.0,27.22,ESE,115,0.0,0.0,74,0.00,,,0.00,,2013-02-23 15:11:00,
2013-02-23 08:22:00,29.0,22.0,27.22,ESE,115,0.0,0.0,74,0.00,,,0.00,,2013-02-23 15:22:00,
2013-02-23 08:32:00,29.0,23.0,27.22,North,360,0.0,0.0,77,0.00,,,0.00,,2013-02-23 15:32:00,
2013-02-23 08:41:00,29.0,23.0,27.22,North,360,0.0,0.0,77,0.00,,,0.00,,2013-02-23 15:41:00,
2013-02-23 08:42:00,30.0,23.0,27.22,North,360,0.0,0.0,75,0.00,,,0.00,,2013-02-23 15:42:00,
2013-02-23 08:52:00,29.0,22.0,27.22,North,360,0.0,1.0,76,0.00,,,0.00,,2013-02-23 15:52:00,
2013-02-23 09:01:00,30.0,23.0,27.22,North,360,0.0,0.0,75,0.00,,,0.00,,2013-02-23 16:01:00,
2013-02-23 09:11:00,30.0,23.0,27.22,North,360,0.0,0.0,75,0.00,,,0.00,,2013-02-23 16:11:00,
2013-02-23 09:21:00,30.0,23.0,27.22,North,360,0.0,0.0,75,0.00,,,0.00,,2013-02-23 16:21:00,
2013-02-23 09:31:00,30.0,23.0,27.22,North,360,0.0,0.0,75,0.00,,,0.00,,2013-02-23 16:31:00,
2013-02-23 09:52:00,35.0,24.0,27.22,SW,236,1.0,5.0,63,0.00,,,0.00,,2013-02-23 16:52:00,
2013-02-23 10:01:00,35.0,24.0,27.22,SW,236,1.0,5.0,63,0.00,,,0.00,,2013-02-23 17:01:00,
2013-02-23 10:11:00,35.0,24.0,27.22,SW,236,1.0,5.0,63,0.00,,,0.00,,2013-02-23 17:11:00,
2013-02-23 10:21:00,35.0,24.0,27.22,SW,236,1.0,5.0,63,0.00,,,0.00,,2013-02-23 17:21:00,
2013-02-23 10:32:00,38.0,22.0,27.22,South,175,8.0,12.0,52,0.00,,,0.00,,2013-02-23 17:32:00,
2013-02-23 10:42:00,38.0,22.0,27.22,South,175,8.0,12.0,52,0.00,,,0.00,,2013-02-23 17:42:00,
2013-02-23 10:52:00,38.0,21.0,27.23,SSW,198,9.0,14.0,50,0.00,,,0.00,,2013-02-23 17:52:00,
2013-02-23 11:01:00,38.0,21.0,27.23,SSW,198,9.0,14.0,50,0.00,,,0.00,,2013-02-23 18:01:00,
2013-02-23 11:12:00,38.0,21.0,27.23,SSW,198,9.0,14.0,50,0.00,,,0.00,,2013-02-23 18:12:00,
2013-02-23 11:22:00,40.0,22.0,27.23,SSW,208,9.0,14.0,48,0.00,,,0.00,,2013-02-23 18:22:00,
2013-02-23 11:32:00,40.0,22.0,27.23,SSW,208,9.0,14.0,48,0.00,,,0.00,,2013-02-23 18:32:00,
2013-02-23 11:42:00,40.0,22.0,27.23,SSW,208,9.0,14.0,48,0.00,,,0.00,,2013-02-23 18:42:00,
2013-02-23 11:51:00,43.0,23.0,27.22,SSW,192,8.0,13.0,45,0.00,,,0.00,,2013-02-23 18:51:00,
2013-02-23 12:01:00,43.0,23.0,27.22,SSW,211,8.0,15.0,44,0.00,,,0.00,,2013-02-23 19:01:00,
2013-02-23 12:11:00,43.0,23.0,27.22,SSW,211,8.0,15.0,44,0.00,,,0.00,,2013-02-23 19:11:00,
2013-02-23 12:21:00,44.0,23.0,27.23,SSW,193,9.0,14.0,43,0.00,,,0.00,,2013-02-23 19:21:00,
2013-02-23 12:32:00,45.0,23.0,27.22,SSW,192,11.0,14.0,42,0.00,,,0.00,,2013-02-23 19:32:00,
2013-02-23 12:41:00,45.0,23.0,27.22,SSW,192,11.0,14.0,42,0.00,,,0.00,,2013-02-23 19:41:00,
2013-02-23 12:52:00,45.0,23.0,27.22,SSW,192,9.0,15.0,41,0.00,,,0.00,,2013-02-23 19:52:00,
2013-02-23 13:01:00,46.0,24.0,27.22,South,191,8.0,13.0,41,0.00,,,0.00,,2013-02-23 20:01:00,
2013-02-23 13:11:00,46.0,24.0,27.22,South,191,8.0,13.0,41,0.00,,,0.00,,2013-02-23 20:11:00,
2013-02-23 13:21:00,46.0,24.0,27.22,South,191,8.0,13.0,41,0.00,,,0.00,,2013-02-23 20:21:00,
2013-02-23 13:32:00,46.0,24.0,27.22,South,191,8.0,13.0,41,0.00,,,0.00,,2013-02-23 20:32:00,
2013-02-23 13:41:00,46.0,24.0,27.22,South,191,8.0,13.0,41,0.00,,,0.00,,2013-02-23 20:41:00,
2013-02-23 13:53:00,45.0,23.0,27.22,South,180,8.0,11.0,42,0.00,,,0.00,,2013-02-23 20:53:00,
2013-02-23 14:01:00,46.0,26.0,27.23,SSW,211,1.0,15.0,45,0.00,,,0.00,,2013-02-23 21:01:00,
2013-02-23 14:11:00,46.0,26.0,27.23,SSW,211,1.0,15.0,45,0.00,,,0.00,,2013-02-23 21:11:00,
2013-02-23 14:22:00,46.0,27.0,27.23,NW,319,3.0,8.0,47,0.00,,,0.00,,2013-02-23 21:22:00,
2013-02-23 14:32:00,46.0,27.0,27.23,NW,319,3.0,8.0,47,0.00,,,0.00,,2013-02-23 21:32:00,
2013-02-23 14:41:00,46.0,27.0,27.23,NW,319,3.0,8.0,47,0.00,,,0.00,,2013-02-23 21:41:00,
2013-02-23 14:51:00,45.0,31.0,27.24,West,273,7.0,18.0,58,0.00,,,0.00,,2013-02-23 21:51:00,
2013-02-23 15:01:00,45.0,31.0,27.24,West,273,7.0,18.0,58,0.00,,,0.00,,2013-02-23 22:01:00,
2013-02-23 15:11:00,44.0,31.0,27.25,West,267,9.0,12.0,60,0.00,,,0.00,,2013-02-23 22:11:00,
2013-02-23 15:21:00,44.0,31.0,27.25,West,267,9.0,12.0,60,0.00,,,0.00,,2013-02-23 22:21:00,
2013-02-23 15:32:00,44.0,31.0,27.25,West,267,9.0,12.0,60,0.00,,,0.00,,2013-02-23 22:32:00,
2013-02-23 15:42:00,44.0,31.0,27.25,West,267,9.0,12.0,60,0.00,,,0.00,,2013-02-23 22:42:00,
2013-02-23 15:51:00,43.0,30.0,27.27,NW,306,13.0,20.0,61,0.00,,,0.00,,2013-02-23 22:51:00,
2013-02-23 16:01:00,43.0,30.0,27.27,NW,306,13.0,20.0,61,0.00,,,0.00,,2013-02-23 23:01:00,
2013-02-23 16:11:00,43.0,30.0,27.27,NW,306,13.0,20.0,61,0.00,,,0.00,,2013-02-23 23:11:00,
2013-02-23 16:21:00,43.0,28.0,27.27,NW,305,3.0,9.0,55,0.00,,,0.00,,2013-02-23 23:21:00,
2013-02-23 16:31:00,43.0,27.0,27.28,WNW,298,5.0,9.0,53,0.00,,,0.00,,2013-02-23 23:31:00,
2013-02-23 16:42:00,43.0,27.0,27.28,WNW,298,5.0,9.0,53,0.00,,,0.00,,2013-02-23 23:42:00,
2013-02-23 16:52:00,43.0,23.0,27.29,NW,311,8.0,11.0,44,0.00,,,0.00,,2013-02-23 23:52:00,
2013-02-23 17:01:00,43.0,22.0,27.29,NW,311,7.0,13.0,43,0.00,,,0.00,,2013-02-24 00:01:00,
2013-02-23 17:11:00,43.0,22.0,27.29,NW,311,7.0,13.0,43,0.00,,,0.00,,2013-02-24 00:11:00,
2013-02-23 17:22:00,43.0,22.0,27.29,NW,311,7.0,13.0,43,0.00,,,0.00,,2013-02-24 00:22:00,
2013-02-23 17:32:00,42.0,22.0,27.32,NW,310,8.0,16.0,44,0.00,,,0.00,,2013-02-24 00:32:00,
2013-02-23 17:42:00,42.0,22.0,27.32,NW,310,8.0,16.0,44,0.00,,,0.00,,2013-02-24 00:42:00,
2013-02-23 17:52:00,42.0,22.0,27.32,WNW,298,7.0,14.0,45,0.00,,,0.00,,2013-02-24 00:52:00,
2013-02-23 18:01:00,41.0,22.0,27.33,WNW,298,4.0,9.0,47,0.00,,,0.00,,2013-02-24 01:01:00,
2013-02-23 18:11:00,41.0,22.0,27.33,WNW,298,4.0,9.0,47,0.00,,,0.00,,2013-02-24 01:11:00,
2013-02-23 18:22:00,41.0,20.0,27.34,WNW,300,8.0,19.0,43,0.00,,,0.00,,2013-02-24 01:22:00,
2013-02-23 18:31:00,40.0,20.0,27.35,WNW,296,7.0,14.0,44,0.00,,,0.00,,2013-02-24 01:31:00,
2013-02-23 18:41:00,40.0,20.0,27.35,WNW,296,7.0,14.0,44,0.00,,,0.00,,2013-02-24 01:41:00,
2013-02-23 18:51:00,40.0,20.0,27.36,WNW,302,9.0,14.0,45,0.00,,,0.00,,2013-02-24 01:51:00,
2013-02-23 19:01:00,39.0,20.0,27.37,NW,316,7.0,16.0,46,0.00,,,0.00,,2013-02-24 02:01:00,
2013-02-23 19:11:00,39.0,20.0,27.37,NW,316,7.0,16.0,46,0.00,,,0.00,,2013-02-24 02:11:00,
2013-02-23 19:21:00,39.0,21.0,27.38,NW,321,6.0,15.0,48,0.00,,,0.00,,2013-02-24 02:21:00,
2013-02-23 19:32:00,39.0,22.0,27.38,WNW,303,5.0,11.0,50,0.00,,,0.00,,2013-02-24 02:32:00,
2013-02-23 19:42:00,39.0,22.0,27.38,WNW,303,5.0,11.0,50,0.00,,,0.00,,2013-02-24 02:42:00,
2013-02-23 19:52:00,39.0,22.0,27.38,WNW,303,5.0,11.0,50,0.00,,,0.00,,2013-02-24 02:52:00,
2013-02-23 20:02:00,39.0,22.0,27.38,WNW,303,5.0,11.0,50,0.00,,,0.00,,2013-02-24 03:02:00,
2013-02-23 20:11:00,39.0,22.0,27.38,WNW,303,5.0,11.0,50,0.00,,,0.00,,2013-02-24 03:11:00,
2013-02-23 20:22:00,38.0,23.0,27.41,WNW,296,0.0,2.0,54,0.00,,,0.00,,2013-02-24 03:22:00,
2013-02-23 20:32:00,37.0,22.0,27.42,WNW,296,0.0,1.0,55,0.00,,,0.00,,2013-02-24 03:32:00,
2013-02-23 20:42:00,37.0,22.0,27.42,WNW,296,0.0,1.0,55,0.00,,,0.00,,2013-02-24 03:42:00,
2013-02-23 20:52:00,37.0,23.0,27.42,WNW,296,0.0,0.0,57,0.00,,,0.00,,2013-02-24 03:52:00,
2013-02-23 21:01:00,37.0,23.0,27.42,WNW,296,0.0,0.0,57,0.00,,,0.00,,2013-02-24 04:01:00,
2013-02-23 21:11:00,37.0,23.0,27.42,WNW,296,0.0,0.0,57,0.00,,,0.00,,2013-02-24 04:11:00,
2013-02-23 21:21:00,35.0,23.0,27.43,South,186,3.0,6.0,60,0.00,,,0.00,,2013-02-24 04:21:00,
2013-02-23 21:32:00,35.0,24.0,27.44,SW,229,8.0,13.0,63,0.00,,,0.00,,2013-02-24 04:32:00,
2013-02-23 21:42:00,35.0,24.0,27.44,SW,229,8.0,13.0,63,0.00,,,0.00,,2013-02-24 04:42:00,
2013-02-23 21:52:00,36.0,26.0,27.44,West,267,7.0,11.0,68,0.00,,,0.00,,2013-02-24 04:52:00,
2013-02-23 22:01:00,36.0,27.0,27.45,WSW,239,7.0,11.0,70,0.00,,,0.00,,2013-02-24 05:01:00,
2013-02-23 22:11:00,36.0,27.0,27.45,WSW,239,7.0,11.0,70,0.00,,,0.00,,2013-02-24 05:11:00,
2013-02-23 22:22:00,36.0,27.0,27.45,West,260,6.0,14.0,69,0.00,,,0.00,,2013-02-24 05:22:00,
2013-02-23 22:32:00,36.0,28.0,27.46,WSW,240,6.0,11.0,71,0.00,,,0.00,,2013-02-24 05:32:00,
2013-02-23 22:42:00,36.0,28.0,27.46,WSW,240,6.0,11.0,71,0.00,,,0.00,,2013-02-24 05:42:00,
2013-02-23 22:52:00,35.0,28.0,27.46,SW,229,5.0,12.0,75,0.00,,,0.00,,2013-02-24 05:52:00,
2013-02-23 23:01:00,35.0,28.0,27.47,SSW,192,7.0,9.0,76,0.00,,,0.00,,2013-02-24 06:01:00,
2013-02-23 23:11:00,35.0,28.0,27.47,SSW,192,7.0,9.0,76,0.00,,,0.00,,2013-02-24 06:11:00,
2013-02-23 23:21:00,34.0,28.0,27.47,South,170,6.0,11.0,77,0.00,,,0.00,,2013-02-24 06:21:00,
2013-02-23 23:31:00,34.0,28.0,27.47,SSE,162,6.0,9.0,78,0.00,,,0.00,,2013-02-24 06:31:00,
2013-02-23 23:42:00,34.0,28.0,27.47,SSE,162,6.0,9.0,78,0.00,,,0.00,,2013-02-24 06:42:00,
2013-02-23 23:52:00,34.0,28.0,27.47,South,173,5.0,13.0,77,0.00,,,0.00,,2013-02-24 06:52:00,